createdAt,value
2023-01-26T00:01:16.153Z,2.90
2023-01-26T00:03:43.125Z,2.90
2023-01-26T00:06:12.255Z,2.90
2023-01-26T00:08:40.585Z,2.90
2023-01-26T00:11:09.042Z,2.90
2023-01-26T00:13:36.538Z,2.90
2023-01-26T00:16:03.932Z,2.80
2023-01-26T00:18:31.457Z,2.90
2023-01-26T00:20:59.389Z,2.90
2023-01-26T00:23:26.812Z,2.90
2023-01-26T00:25:53.476Z,2.90
2023-01-26T00:28:20.107Z,2.90
2023-01-26T00:30:46.886Z,2.90
2023-01-26T00:33:13.868Z,2.90
2023-01-26T00:35:44.480Z,2.80
2023-01-26T00:38:12.610Z,2.80
2023-01-26T00:40:40.085Z,2.80
2023-01-26T00:43:07.239Z,2.70
2023-01-26T00:45:35.695Z,2.70
2023-01-26T00:48:02.452Z,2.70
2023-01-26T00:50:29.252Z,2.70
2023-01-26T00:52:55.905Z,2.70
2023-01-26T00:55:22.557Z,2.70
2023-01-26T00:57:49.983Z,2.60
2023-01-26T01:00:20.175Z,2.70
2023-01-26T01:02:46.773Z,2.70
2023-01-26T01:05:13.433Z,2.70
2023-01-26T01:07:40.080Z,2.70
2023-01-26T01:10:08.416Z,2.70
2023-01-26T01:12:35.477Z,2.70
2023-01-26T01:15:02.338Z,2.80
2023-01-26T01:17:28.966Z,2.70
2023-01-26T01:19:55.577Z,2.70
2023-01-26T01:22:22.273Z,2.70
2023-01-26T01:24:48.928Z,2.60
2023-01-26T01:27:15.660Z,2.70
2023-01-26T01:29:42.328Z,2.70
2023-01-26T01:32:09.022Z,2.70
2023-01-26T01:34:35.659Z,2.70
2023-01-26T01:37:02.303Z,2.70
2023-01-26T01:39:29.046Z,2.60
2023-01-26T01:41:55.655Z,2.70
2023-01-26T01:44:24.042Z,2.60
2023-01-26T01:47:02.100Z,2.70
2023-01-26T01:49:34.482Z,2.60
2023-01-26T01:52:10.785Z,2.70
2023-01-26T01:54:54.893Z,2.70
2023-01-26T01:57:31.977Z,2.80
2023-01-26T02:00:09.664Z,2.80
2023-01-26T02:02:38.131Z,2.80
2023-01-26T02:05:17.298Z,2.80
2023-01-26T02:07:45.439Z,2.90
2023-01-26T02:10:21.601Z,2.90
2023-01-26T02:12:51.787Z,2.90
2023-01-26T02:15:18.341Z,2.90
2023-01-26T02:17:45.302Z,2.90
2023-01-26T02:20:28.603Z,3.00
2023-01-26T02:23:06.038Z,3.00
2023-01-26T02:25:53.963Z,3.00
2023-01-26T02:28:26.658Z,3.00
2023-01-26T02:30:54.574Z,2.90
2023-01-26T02:33:23.488Z,2.90
2023-01-26T02:35:50.842Z,2.90
2023-01-26T02:38:19.083Z,2.80
2023-01-26T02:40:56.849Z,2.90
2023-01-26T02:43:26.303Z,2.80
2023-01-26T02:45:53.113Z,2.80
2023-01-26T02:48:38.221Z,2.80
2023-01-26T02:51:05.435Z,2.80
2023-01-26T02:53:32.618Z,2.80
2023-01-26T02:55:59.339Z,2.80
2023-01-26T02:58:26.101Z,2.80
2023-01-26T03:00:53.234Z,2.70
2023-01-26T03:03:23.561Z,2.80
2023-01-26T03:05:50.755Z,2.80
2023-01-26T03:08:17.908Z,2.80
2023-01-26T03:10:44.759Z,2.80
2023-01-26T03:13:11.486Z,2.70
2023-01-26T03:15:44.025Z,2.80
2023-01-26T03:18:32.246Z,2.70
2023-01-26T03:21:19.365Z,2.70
2023-01-26T03:24:05.362Z,2.70
2023-01-26T03:26:50.797Z,2.70
2023-01-26T03:29:17.488Z,2.70
2023-01-26T03:31:44.260Z,2.60
2023-01-26T03:34:11.120Z,2.50
2023-01-26T03:36:38.096Z,2.50
2023-01-26T03:39:05.291Z,2.40
2023-01-26T03:41:50.799Z,2.40
2023-01-26T03:44:36.346Z,2.40
2023-01-26T03:47:21.797Z,2.40
2023-01-26T03:50:07.327Z,2.40
2023-01-26T03:52:52.750Z,2.40
2023-01-26T03:55:38.251Z,2.40
2023-01-26T03:58:04.887Z,2.40
2023-01-26T04:00:31.597Z,2.40
2023-01-26T04:03:17.047Z,2.40
2023-01-26T04:06:16.462Z,2.40
2023-01-26T04:08:44.733Z,2.30
2023-01-26T04:11:11.411Z,2.40
2023-01-26T04:13:56.498Z,2.40
2023-01-26T04:16:41.945Z,2.40
2023-01-26T04:19:27.025Z,2.30
2023-01-26T04:21:53.652Z,2.40
2023-01-26T04:24:22.592Z,2.30
2023-01-26T04:26:49.346Z,2.30
2023-01-26T04:29:16.594Z,2.30
2023-01-26T04:31:43.419Z,2.40
2023-01-26T04:34:14.617Z,2.30
2023-01-26T04:36:42.195Z,2.30
2023-01-26T04:39:09.905Z,2.20
2023-01-26T04:41:36.696Z,2.20
2023-01-26T04:44:03.457Z,2.20
2023-01-26T04:46:30.204Z,2.10
2023-01-26T04:48:56.836Z,2.10
2023-01-26T04:51:23.517Z,2.10
2023-01-26T04:53:51.031Z,2.10
2023-01-26T04:56:28.020Z,2.10
2023-01-26T04:58:56.068Z,2.10
2023-01-26T05:01:23.004Z,2.00
2023-01-26T05:03:49.740Z,1.90
2023-01-26T05:06:16.827Z,1.90
2023-01-26T05:08:43.911Z,2.00
2023-01-26T05:11:10.733Z,2.00
2023-01-26T05:13:37.511Z,2.00
2023-01-26T05:16:05.458Z,2.10
2023-01-26T05:18:32.260Z,2.10
2023-01-26T05:20:58.975Z,2.10
2023-01-26T05:23:25.770Z,2.10
2023-01-26T05:25:52.505Z,2.10
2023-01-26T05:28:19.097Z,2.10
2023-01-26T05:30:46.707Z,2.10
2023-01-26T05:33:13.577Z,2.10
2023-01-26T05:35:40.225Z,2.10
2023-01-26T05:38:06.918Z,2.00
2023-01-26T05:40:33.673Z,2.00
2023-01-26T05:43:00.859Z,1.90
2023-01-26T05:45:27.594Z,1.90
2023-01-26T05:47:54.241Z,1.90
2023-01-26T05:50:20.962Z,1.90
2023-01-26T05:52:48.143Z,1.80
2023-01-26T05:55:14.838Z,1.80
2023-01-26T05:57:41.779Z,1.80
2023-01-26T06:00:10.390Z,1.90
2023-01-26T06:02:37.253Z,1.90
2023-01-26T06:05:04.682Z,1.90
2023-01-26T06:07:32.018Z,2.00
2023-01-26T06:09:58.661Z,1.90
2023-01-26T06:12:25.519Z,1.80
2023-01-26T06:14:52.168Z,1.70
2023-01-26T06:17:18.897Z,1.70
2023-01-26T06:19:45.692Z,1.60
2023-01-26T06:22:13.313Z,1.60
2023-01-26T06:24:39.972Z,1.60
2023-01-26T06:27:15.036Z,1.60
2023-01-26T06:29:42.783Z,1.50
2023-01-26T06:32:13.667Z,1.50
2023-01-26T06:34:40.701Z,1.50
2023-01-26T06:37:07.741Z,1.40
2023-01-26T06:39:34.463Z,1.50
2023-01-26T06:42:01.102Z,1.40
2023-01-26T06:44:27.738Z,1.40
2023-01-26T06:46:54.392Z,1.40
2023-01-26T06:49:21.065Z,1.40
2023-01-26T06:52:03.224Z,1.40
2023-01-26T06:54:29.940Z,1.40
2023-01-26T06:56:56.583Z,1.40
2023-01-26T06:59:23.230Z,1.50
2023-01-26T07:01:49.966Z,1.50
2023-01-26T07:04:17.148Z,1.50
2023-01-26T07:06:43.805Z,1.50
2023-01-26T07:09:11.107Z,1.40
2023-01-26T07:11:37.804Z,1.40
2023-01-26T07:14:04.595Z,1.40
2023-01-26T07:16:33.620Z,1.40
2023-01-26T07:19:00.828Z,1.40
2023-01-26T07:21:27.802Z,1.40
2023-01-26T07:23:55.844Z,1.40
2023-01-26T07:26:22.637Z,1.40
2023-01-26T07:28:49.296Z,1.30
2023-01-26T07:31:16.108Z,1.40
2023-01-26T07:33:42.862Z,1.40
2023-01-26T07:36:11.051Z,1.30
2023-01-26T07:38:37.853Z,1.30
2023-01-26T07:41:06.927Z,1.30
2023-01-26T07:43:35.306Z,1.20
2023-01-26T07:46:02.427Z,1.20
2023-01-26T07:48:32.067Z,1.20
2023-01-26T07:51:00.478Z,1.20
2023-01-26T07:53:29.260Z,1.10
2023-01-26T07:56:06.497Z,1.20
2023-01-26T07:58:36.116Z,1.20
2023-01-26T08:01:14.007Z,1.20
2023-01-26T08:03:41.511Z,1.20
2023-01-26T08:06:11.792Z,1.10
2023-01-26T08:08:42.044Z,1.10
2023-01-26T08:11:10.069Z,1.20
2023-01-26T08:13:36.933Z,1.10
2023-01-26T08:16:06.475Z,1.20
2023-01-26T08:18:33.120Z,1.20
2023-01-26T08:21:00.455Z,1.20
2023-01-26T08:23:27.689Z,1.30
2023-01-26T08:25:54.540Z,1.30
2023-01-26T08:28:21.370Z,1.20
2023-01-26T08:30:48.133Z,1.20
2023-01-26T08:33:14.815Z,1.20
2023-01-26T08:35:41.672Z,1.20
2023-01-26T08:38:08.415Z,1.20
2023-01-26T08:40:35.063Z,1.30
2023-01-26T08:43:02.686Z,1.30
2023-01-26T08:45:33.176Z,1.30
2023-01-26T08:48:00.103Z,1.30
2023-01-26T08:50:26.928Z,1.40
2023-01-26T08:52:56.400Z,1.30
2023-01-26T08:55:23.133Z,1.40
2023-01-26T08:57:55.036Z,1.40
2023-01-26T09:00:23.314Z,1.40
2023-01-26T09:02:50.506Z,1.50
2023-01-26T09:05:17.623Z,1.50
2023-01-26T09:07:44.576Z,1.50
2023-01-26T09:10:11.774Z,1.50
2023-01-26T09:12:40.956Z,1.40
2023-01-26T09:15:08.821Z,1.40
2023-01-26T09:17:35.468Z,1.40
2023-01-26T09:20:02.764Z,1.40
2023-01-26T09:22:30.627Z,1.40
2023-01-26T09:24:57.570Z,1.40
2023-01-26T09:27:24.241Z,1.30
2023-01-26T09:29:51.032Z,1.40
2023-01-26T09:32:18.080Z,1.40
2023-01-26T09:34:45.919Z,1.40
2023-01-26T09:37:12.824Z,1.40
2023-01-26T09:39:39.603Z,1.40
2023-01-26T09:42:27.446Z,1.40
2023-01-26T09:45:12.770Z,1.40
2023-01-26T09:47:56.705Z,1.40
2023-01-26T09:50:28.369Z,1.40
2023-01-26T09:53:03.907Z,1.40
2023-01-26T09:55:31.734Z,1.40
2023-01-26T09:58:07.852Z,1.40
2023-01-26T10:00:43.809Z,1.40
2023-01-26T10:03:19.253Z,1.40
2023-01-26T10:06:10.481Z,1.50
2023-01-26T10:08:37.223Z,1.50
2023-01-26T10:11:14.827Z,1.50
2023-01-26T10:13:53.591Z,1.60
2023-01-26T10:16:24.292Z,1.60
2023-01-26T10:19:05.533Z,1.60
2023-01-26T10:21:37.455Z,1.60
2023-01-26T10:24:05.685Z,1.70
2023-01-26T10:26:34.175Z,1.60
2023-01-26T10:29:01.462Z,1.70
2023-01-26T10:31:30.932Z,1.70
2023-01-26T10:34:22.278Z,1.70
2023-01-26T10:36:48.990Z,1.60
2023-01-26T10:39:17.587Z,1.60
2023-01-26T10:42:00.577Z,1.60
2023-01-26T10:44:35.017Z,1.70
2023-01-26T10:47:13.839Z,1.70
2023-01-26T10:49:40.553Z,1.80
2023-01-26T10:52:22.360Z,1.80
2023-01-26T10:54:51.412Z,1.70
2023-01-26T10:57:24.685Z,1.70
2023-01-26T10:59:56.022Z,1.70
2023-01-26T11:02:29.030Z,1.50
2023-01-26T11:05:07.881Z,1.60
2023-01-26T11:07:36.225Z,1.60
2023-01-26T11:10:21.912Z,1.60
2023-01-26T11:12:49.968Z,1.70
2023-01-26T11:15:24.589Z,1.70
2023-01-26T11:18:32.626Z,1.70
2023-01-26T11:21:32.536Z,1.80
2023-01-26T11:24:26.828Z,1.90
2023-01-26T11:27:11.073Z,1.90
2023-01-26T11:29:57.460Z,1.90
2023-01-26T11:32:39.274Z,1.90
2023-01-26T11:35:15.964Z,2.00
2023-01-26T11:37:49.260Z,2.00
2023-01-26T11:40:34.954Z,2.00
2023-01-26T11:43:06.986Z,2.00
2023-01-26T11:46:04.161Z,2.00
2023-01-26T11:48:57.592Z,2.10
2023-01-26T11:51:59.988Z,2.10
2023-01-26T11:54:38.706Z,2.20
2023-01-26T11:57:27.742Z,2.10
2023-01-26T12:00:05.840Z,1.90
2023-01-26T12:02:34.468Z,2.00
2023-01-26T12:05:12.663Z,2.10
2023-01-26T12:08:15.178Z,2.20
2023-01-26T12:10:50.963Z,2.20
2023-01-26T12:13:40.971Z,2.30
2023-01-26T12:16:43.035Z,2.30
2023-01-26T12:19:50.987Z,2.30
2023-01-26T12:22:35.285Z,2.30
2023-01-26T12:25:19.579Z,2.30
2023-01-26T12:28:22.252Z,2.40
2023-01-26T12:30:59.759Z,2.40
2023-01-26T12:33:26.620Z,2.50
2023-01-26T12:36:13.561Z,2.40
2023-01-26T12:39:05.171Z,2.40
2023-01-26T12:41:32.962Z,2.40
2023-01-26T12:44:14.733Z,2.40
2023-01-26T12:46:47.084Z,2.30
2023-01-26T12:49:22.561Z,2.30
2023-01-26T12:51:56.340Z,2.30
2023-01-26T12:54:43.426Z,2.30
2023-01-26T12:57:22.590Z,2.30
2023-01-26T12:59:50.077Z,2.30
2023-01-26T13:02:16.716Z,2.30
2023-01-26T13:04:47.180Z,2.20
2023-01-26T13:07:31.532Z,2.20
2023-01-26T13:10:17.928Z,2.20
2023-01-26T13:12:52.053Z,2.20
2023-01-26T13:15:21.773Z,2.20
2023-01-26T13:17:54.753Z,2.30
2023-01-26T13:20:43.118Z,2.20
2023-01-26T13:23:42.716Z,2.30
2023-01-26T13:26:21.739Z,2.30
2023-01-26T13:28:49.355Z,2.30
2023-01-26T13:31:33.898Z,2.30
2023-01-26T13:34:06.322Z,2.30
2023-01-26T13:36:36.660Z,2.30
2023-01-26T13:39:18.199Z,2.30
2023-01-26T13:41:48.375Z,2.30
2023-01-26T13:44:20.579Z,2.30
2023-01-26T13:46:59.156Z,2.20
2023-01-26T13:49:38.574Z,2.20
2023-01-26T13:52:18.079Z,2.30
2023-01-26T13:54:45.584Z,2.30
2023-01-26T13:57:19.794Z,2.30
2023-01-26T13:59:54.829Z,2.30
2023-01-26T14:02:25.786Z,2.30
2023-01-26T14:04:55.543Z,2.40
2023-01-26T14:07:41.251Z,2.40
2023-01-26T14:10:15.158Z,2.50
2023-01-26T14:12:44.238Z,2.50
2023-01-26T14:15:26.607Z,2.40
2023-01-26T14:17:58.484Z,2.30
2023-01-26T14:20:30.172Z,2.30
2023-01-26T14:23:15.381Z,2.30
2023-01-26T14:25:48.581Z,2.10
2023-01-26T14:28:20.741Z,2.10
2023-01-26T14:31:09.586Z,2.10
2023-01-26T14:33:37.109Z,2.20
2023-01-26T14:36:05.181Z,2.20
2023-01-26T14:38:43.772Z,2.20
2023-01-26T14:41:16.069Z,2.30
2023-01-26T14:43:42.815Z,2.30
2023-01-26T14:46:17.102Z,2.20
2023-01-26T14:48:46.644Z,2.20
2023-01-26T14:51:24.122Z,2.20
2023-01-26T14:53:55.396Z,2.20
2023-01-26T14:56:35.355Z,2.20
2023-01-26T14:59:03.688Z,2.20
2023-01-26T15:01:30.966Z,2.20
2023-01-26T15:04:04.674Z,2.20
2023-01-26T15:06:32.494Z,2.10
2023-01-26T15:09:23.059Z,2.10
2023-01-26T15:12:13.464Z,2.10
2023-01-26T15:14:57.817Z,2.00
2023-01-26T15:17:38.478Z,2.10
2023-01-26T15:20:31.628Z,2.10
2023-01-26T15:22:58.494Z,2.10
2023-01-26T15:25:31.705Z,2.00
2023-01-26T15:28:00.041Z,2.00
2023-01-26T15:30:33.450Z,2.00
2023-01-26T15:33:00.818Z,1.90
2023-01-26T15:35:30.751Z,1.90
2023-01-26T15:38:10.551Z,1.90
2023-01-26T15:40:37.870Z,1.90
2023-01-26T15:43:14.546Z,1.80
2023-01-26T15:45:47.378Z,1.80
2023-01-26T15:48:14.007Z,1.80
2023-01-26T15:50:40.697Z,1.80
2023-01-26T15:53:16.221Z,1.90
2023-01-26T15:55:44.274Z,1.90
2023-01-26T15:58:11.321Z,1.90
2023-01-26T16:00:39.166Z,1.90
2023-01-26T16:03:12.008Z,1.90
2023-01-26T16:05:38.678Z,1.90
2023-01-26T16:08:05.451Z,1.90
2023-01-26T16:10:32.119Z,1.90
2023-01-26T16:12:58.767Z,1.80
2023-01-26T16:15:36.954Z,1.80
2023-01-26T16:18:03.862Z,1.80
2023-01-26T16:20:30.541Z,1.70
2023-01-26T16:22:57.296Z,1.80
2023-01-26T16:25:27.936Z,1.80
2023-01-26T16:27:55.755Z,1.80
2023-01-26T16:30:23.243Z,1.80
2023-01-26T16:32:50.653Z,1.80
2023-01-26T16:35:20.476Z,1.70
2023-01-26T16:37:47.258Z,1.80
2023-01-26T16:40:16.847Z,1.80
2023-01-26T16:42:49.520Z,1.80
2023-01-26T16:45:22.401Z,1.80
2023-01-26T16:47:57.054Z,1.70
2023-01-26T16:50:25.136Z,1.70
2023-01-26T16:52:52.659Z,1.60
2023-01-26T16:55:20.134Z,1.60
2023-01-26T16:57:49.826Z,1.70
2023-01-26T17:00:19.436Z,1.70
2023-01-26T17:02:52.113Z,1.70
2023-01-26T17:05:22.393Z,1.70
2023-01-26T17:07:50.961Z,1.60
2023-01-26T17:10:18.440Z,1.60
2023-01-26T17:12:45.126Z,1.50
2023-01-26T17:15:12.943Z,1.60
2023-01-26T17:17:39.835Z,1.50
2023-01-26T17:20:18.234Z,1.50
2023-01-26T17:22:45.700Z,1.50
2023-01-26T17:25:16.057Z,1.40
2023-01-26T17:27:44.049Z,1.40
2023-01-26T17:30:10.987Z,1.40
2023-01-26T17:32:37.791Z,1.40
2023-01-26T17:35:04.623Z,1.40
2023-01-26T17:37:31.626Z,1.40
2023-01-26T17:39:58.322Z,1.30
2023-01-26T17:42:25.703Z,1.30
2023-01-26T17:44:52.711Z,1.20
2023-01-26T17:47:19.436Z,1.20
2023-01-26T17:49:46.156Z,1.20
2023-01-26T17:52:14.329Z,1.10
2023-01-26T17:54:41.314Z,1.10
2023-01-26T17:57:08.697Z,1.10
2023-01-26T17:59:35.703Z,1.10
2023-01-26T18:02:02.774Z,1.10
2023-01-26T18:04:31.426Z,1.00
2023-01-26T18:06:58.239Z,0.90
2023-01-26T18:09:25.262Z,1.00
2023-01-26T18:11:51.919Z,1.00
2023-01-26T18:14:18.597Z,1.00
2023-01-26T18:16:45.410Z,0.90
2023-01-26T18:19:12.147Z,0.90
2023-01-26T18:21:39.100Z,0.90
2023-01-26T18:24:06.532Z,0.90
2023-01-26T18:26:36.137Z,0.90
2023-01-26T18:29:05.073Z,1.00
2023-01-26T18:31:34.635Z,1.00
2023-01-26T18:34:03.270Z,1.00
2023-01-26T18:36:30.379Z,0.90
2023-01-26T18:38:59.747Z,0.90
2023-01-26T18:41:27.271Z,0.90
2023-01-26T18:43:55.312Z,0.90
2023-01-26T18:46:22.715Z,0.90
2023-01-26T18:48:52.140Z,0.90
2023-01-26T18:51:19.215Z,0.90
2023-01-26T18:53:45.867Z,0.90
2023-01-26T18:56:15.569Z,1.00
2023-01-26T18:58:42.247Z,1.00
2023-01-26T19:01:13.162Z,1.00
2023-01-26T19:03:41.732Z,1.00
2023-01-26T19:06:09.227Z,1.00
2023-01-26T19:08:35.900Z,1.00
2023-01-26T19:11:07.767Z,1.00
2023-01-26T19:13:34.938Z,1.00
2023-01-26T19:16:01.631Z,0.90
2023-01-26T19:18:28.758Z,0.80
2023-01-26T19:20:59.812Z,0.90
2023-01-26T19:23:27.311Z,0.90
2023-01-26T19:25:54.297Z,0.90
2023-01-26T19:28:20.971Z,1.00
2023-01-26T19:30:47.839Z,1.00
2023-01-26T19:33:23.827Z,1.00
2023-01-26T19:35:51.461Z,1.00
2023-01-26T19:38:18.142Z,0.90
2023-01-26T19:40:46.114Z,0.90
2023-01-26T19:43:13.690Z,0.80
2023-01-26T19:45:41.012Z,0.70
2023-01-26T19:48:07.716Z,0.70
2023-01-26T19:50:34.789Z,0.60
2023-01-26T19:53:01.475Z,0.60
2023-01-26T19:55:28.191Z,0.60
2023-01-26T19:57:54.793Z,0.70
2023-01-26T20:00:21.639Z,0.70
2023-01-26T20:02:48.276Z,0.60
2023-01-26T20:05:15.164Z,0.60
2023-01-26T20:07:42.285Z,0.60
2023-01-26T20:10:09.696Z,0.60
2023-01-26T20:12:36.445Z,0.60
2023-01-26T20:15:04.743Z,0.50
2023-01-26T20:17:31.412Z,0.50
2023-01-26T20:19:58.051Z,0.60
2023-01-26T20:22:24.715Z,0.60
2023-01-26T20:24:53.091Z,0.60
2023-01-26T20:27:19.827Z,0.60
2023-01-26T20:29:46.633Z,0.50
2023-01-26T20:32:13.377Z,0.50
2023-01-26T20:34:41.061Z,0.50
2023-01-26T20:37:09.025Z,0.50
2023-01-26T20:39:35.643Z,0.50
2023-01-26T20:42:02.275Z,0.50
2023-01-26T20:44:29.785Z,0.50
2023-01-26T20:46:56.537Z,0.40
2023-01-26T20:49:23.247Z,0.50
2023-01-26T20:51:50.413Z,0.40
2023-01-26T20:54:17.423Z,0.40
2023-01-26T20:56:45.789Z,0.40
2023-01-26T20:59:12.773Z,0.40
2023-01-26T21:01:39.435Z,0.50
2023-01-26T21:04:06.824Z,0.50
2023-01-26T21:06:33.946Z,0.50
2023-01-26T21:09:01.081Z,0.50
2023-01-26T21:11:30.724Z,0.50
2023-01-26T21:14:00.587Z,0.50
2023-01-26T21:16:28.365Z,0.50
2023-01-26T21:18:55.181Z,0.50
2023-01-26T21:21:22.821Z,0.50
2023-01-26T21:23:50.511Z,0.40
2023-01-26T21:26:21.944Z,0.50
2023-01-26T21:28:58.003Z,0.40
2023-01-26T21:31:26.873Z,0.40
2023-01-26T21:33:54.421Z,0.40
2023-01-26T21:36:27.237Z,0.40
2023-01-26T21:38:56.446Z,0.40
2023-01-26T21:41:44.629Z,0.30
2023-01-26T21:44:13.818Z,0.30
2023-01-26T21:46:41.176Z,0.30
2023-01-26T21:49:09.553Z,0.30
2023-01-26T21:51:55.052Z,0.30
2023-01-26T21:54:21.791Z,0.30
2023-01-26T21:56:48.536Z,0.40
2023-01-26T21:59:17.305Z,0.40
2023-01-26T22:01:45.636Z,0.40
2023-01-26T22:04:15.351Z,0.50
2023-01-26T22:06:42.498Z,0.50
2023-01-26T22:09:11.791Z,0.50
2023-01-26T22:11:39.680Z,0.50
2023-01-26T22:14:07.399Z,0.50
2023-01-26T22:16:34.136Z,0.50
2023-01-26T22:19:00.854Z,0.50
2023-01-26T22:21:27.572Z,0.50
2023-01-26T22:23:55.195Z,0.50
2023-01-26T22:26:22.992Z,0.50
2023-01-26T22:28:55.190Z,0.50
2023-01-26T22:31:26.260Z,0.50
2023-01-26T22:33:54.338Z,0.50
2023-01-26T22:36:22.218Z,0.50
2023-01-26T22:38:49.144Z,0.50
2023-01-26T22:41:26.954Z,0.50
2023-01-26T22:43:56.297Z,0.50
2023-01-26T22:46:24.687Z,0.50
2023-01-26T22:48:51.704Z,0.60
2023-01-26T22:51:20.396Z,0.60
2023-01-26T22:53:49.283Z,0.60
2023-01-26T22:56:16.775Z,0.60
2023-01-26T22:58:57.132Z,0.60
2023-01-26T23:01:25.565Z,0.60
2023-01-26T23:03:54.392Z,0.60
2023-01-26T23:06:21.980Z,0.50
2023-01-26T23:08:49.326Z,0.50
2023-01-26T23:11:17.430Z,0.50
2023-01-26T23:13:45.029Z,0.50
2023-01-26T23:16:12.412Z,0.50
2023-01-26T23:18:39.272Z,0.50
2023-01-26T23:21:06.994Z,0.50
2023-01-26T23:23:34.345Z,0.50
2023-01-26T23:26:01.113Z,0.50
2023-01-26T23:28:30.759Z,0.50
2023-01-26T23:30:58.745Z,0.50
2023-01-26T23:33:27.343Z,0.50
2023-01-26T23:35:54.400Z,0.40
2023-01-26T23:38:24.833Z,0.50
2023-01-26T23:40:52.233Z,0.50
2023-01-26T23:43:19.673Z,0.50
2023-01-26T23:45:48.561Z,0.50
2023-01-26T23:48:15.962Z,0.50
2023-01-26T23:50:42.999Z,0.60
2023-01-26T23:53:10.020Z,0.60
2023-01-26T23:55:43.258Z,0.60
2023-01-26T23:58:11.222Z,0.60
